sensor_id;sensor_type;location;lat;lon;timestamp;temperature;humidity
64987;DHT22;67903;52.108;9.358;2024-03-02T00:01:37;6.80;78.40
64987;DHT22;67903;52.108;9.358;2024-03-02T00:04:22;6.70;78.40
64987;DHT22;67903;52.108;9.358;2024-03-02T00:07:08;6.70;78.60
64987;DHT22;67903;52.108;9.358;2024-03-02T00:09:54;6.60;78.90
64987;DHT22;67903;52.108;9.358;2024-03-02T00:12:40;6.60;79.10
64987;DHT22;67903;52.108;9.358;2024-03-02T00:15:40;6.60;79.30
64987;DHT22;67903;52.108;9.358;2024-03-02T00:18:31;6.60;79.40
64987;DHT22;67903;52.108;9.358;2024-03-02T00:21:17;6.50;79.60
64987;DHT22;67903;52.108;9.358;2024-03-02T00:24:34;6.50;79.60
64987;DHT22;67903;52.108;9.358;2024-03-02T00:27:19;6.50;79.60
64987;DHT22;67903;52.108;9.358;2024-03-02T00:33:16;6.50;79.80
64987;DHT22;67903;52.108;9.358;2024-03-02T00:36:05;6.50;79.80
64987;DHT22;67903;52.108;9.358;2024-03-02T00:38:52;6.50;80.00
64987;DHT22;67903;52.108;9.358;2024-03-02T00:41:41;6.50;80.00
64987;DHT22;67903;52.108;9.358;2024-03-02T00:44:28;6.50;80.10
64987;DHT22;67903;52.108;9.358;2024-03-02T00:47:19;6.50;80.10
64987;DHT22;67903;52.108;9.358;2024-03-02T00:50:05;6.50;80.20
64987;DHT22;67903;52.108;9.358;2024-03-02T00:53:04;6.50;80.20
64987;DHT22;67903;52.108;9.358;2024-03-02T00:55:50;6.50;80.10
64987;DHT22;67903;52.108;9.358;2024-03-02T00:58:35;6.50;80.20
64987;DHT22;67903;52.108;9.358;2024-03-02T01:01:21;6.50;80.00
64987;DHT22;67903;52.108;9.358;2024-03-02T01:04:08;6.50;80.70
64987;DHT22;67903;52.108;9.358;2024-03-02T01:06:53;6.50;80.30
64987;DHT22;67903;52.108;9.358;2024-03-02T01:09:39;6.50;80.50
64987;DHT22;67903;52.108;9.358;2024-03-02T01:12:26;6.50;80.70
64987;DHT22;67903;52.108;9.358;2024-03-02T01:15:12;6.40;80.80
64987;DHT22;67903;52.108;9.358;2024-03-02T01:17:57;6.30;81.00
64987;DHT22;67903;52.108;9.358;2024-03-02T01:20:43;6.30;81.20
64987;DHT22;67903;52.108;9.358;2024-03-02T01:23:29;6.20;81.60
64987;DHT22;67903;52.108;9.358;2024-03-02T01:26:14;6.20;81.50
64987;DHT22;67903;52.108;9.358;2024-03-02T01:29:00;6.10;81.80
64987;DHT22;67903;52.108;9.358;2024-03-02T01:31:45;6.10;81.90
64987;DHT22;67903;52.108;9.358;2024-03-02T01:34:31;6.10;82.30
64987;DHT22;67903;52.108;9.358;2024-03-02T01:37:17;6.10;82.20
64987;DHT22;67903;52.108;9.358;2024-03-02T01:40:03;6.10;82.10
64987;DHT22;67903;52.108;9.358;2024-03-02T01:42:53;6.10;82.30
64987;DHT22;67903;52.108;9.358;2024-03-02T01:45:39;6.00;82.40
64987;DHT22;67903;52.108;9.358;2024-03-02T01:48:25;5.90;82.70
64987;DHT22;67903;52.108;9.358;2024-03-02T01:51:11;6.00;82.60
64987;DHT22;67903;52.108;9.358;2024-03-02T01:53:56;5.90;82.90
64987;DHT22;67903;52.108;9.358;2024-03-02T01:56:42;6.00;83.00
64987;DHT22;67903;52.108;9.358;2024-03-02T01:59:27;5.90;82.90
64987;DHT22;67903;52.108;9.358;2024-03-02T02:02:14;6.00;82.80
64987;DHT22;67903;52.108;9.358;2024-03-02T02:05:00;6.00;82.80
64987;DHT22;67903;52.108;9.358;2024-03-02T02:07:46;5.90;82.60
64987;DHT22;67903;52.108;9.358;2024-03-02T02:10:31;5.80;83.10
64987;DHT22;67903;52.108;9.358;2024-03-02T02:13:17;5.80;83.40
64987;DHT22;67903;52.108;9.358;2024-03-02T02:16:07;5.70;83.70
64987;DHT22;67903;52.108;9.358;2024-03-02T02:18:52;5.70;84.10
64987;DHT22;67903;52.108;9.358;2024-03-02T02:21:37;5.60;84.20
64987;DHT22;67903;52.108;9.358;2024-03-02T02:24:23;5.60;84.50
64987;DHT22;67903;52.108;9.358;2024-03-02T02:27:09;5.50;84.50
64987;DHT22;67903;52.108;9.358;2024-03-02T02:29:55;5.50;84.90
64987;DHT22;67903;52.108;9.358;2024-03-02T02:32:41;5.50;85.20
64987;DHT22;67903;52.108;9.358;2024-03-02T02:35:26;5.50;85.50
64987;DHT22;67903;52.108;9.358;2024-03-02T02:38:12;5.50;85.40
64987;DHT22;67903;52.108;9.358;2024-03-02T02:40:58;5.40;85.50
64987;DHT22;67903;52.108;9.358;2024-03-02T02:43:43;5.40;85.60
64987;DHT22;67903;52.108;9.358;2024-03-02T02:46:29;5.40;85.80
64987;DHT22;67903;52.108;9.358;2024-03-02T02:49:15;5.30;85.80
64987;DHT22;67903;52.108;9.358;2024-03-02T02:52:00;5.30;86.20
64987;DHT22;67903;52.108;9.358;2024-03-02T02:54:46;5.30;86.60
64987;DHT22;67903;52.108;9.358;2024-03-02T02:57:35;5.40;86.20
64987;DHT22;67903;52.108;9.358;2024-03-02T03:00:23;5.30;86.20
64987;DHT22;67903;52.108;9.358;2024-03-02T03:03:08;5.30;86.30
64987;DHT22;67903;52.108;9.358;2024-03-02T03:05:54;5.30;86.70
64987;DHT22;67903;52.108;9.358;2024-03-02T03:08:39;5.30;86.60
64987;DHT22;67903;52.108;9.358;2024-03-02T03:11:25;5.20;86.70
64987;DHT22;67903;52.108;9.358;2024-03-02T03:14:12;5.10;86.90
64987;DHT22;67903;52.108;9.358;2024-03-02T03:16:57;5.10;86.80
64987;DHT22;67903;52.108;9.358;2024-03-02T03:19:43;5.00;87.10
64987;DHT22;67903;52.108;9.358;2024-03-02T03:22:29;5.00;87.60
64987;DHT22;67903;52.108;9.358;2024-03-02T03:25:14;5.00;87.40
64987;DHT22;67903;52.108;9.358;2024-03-02T03:28:00;5.00;87.70
64987;DHT22;67903;52.108;9.358;2024-03-02T03:30:47;5.00;87.80
64987;DHT22;67903;52.108;9.358;2024-03-02T03:33:32;5.00;87.80
64987;DHT22;67903;52.108;9.358;2024-03-02T03:36:18;5.00;87.90
64987;DHT22;67903;52.108;9.358;2024-03-02T03:39:04;5.00;87.60
64987;DHT22;67903;52.108;9.358;2024-03-02T03:41:51;5.00;87.80
64987;DHT22;67903;52.108;9.358;2024-03-02T03:44:37;5.00;87.40
64987;DHT22;67903;52.108;9.358;2024-03-02T03:47:22;5.00;87.30
64987;DHT22;67903;52.108;9.358;2024-03-02T03:50:08;5.00;87.80
64987;DHT22;67903;52.108;9.358;2024-03-02T03:52:53;5.00;87.70
64987;DHT22;67903;52.108;9.358;2024-03-02T03:55:39;4.90;87.70
64987;DHT22;67903;52.108;9.358;2024-03-02T03:58:24;4.90;88.10
64987;DHT22;67903;52.108;9.358;2024-03-02T04:01:09;4.90;88.40
64987;DHT22;67903;52.108;9.358;2024-03-02T04:03:55;5.00;88.40
64987;DHT22;67903;52.108;9.358;2024-03-02T04:06:40;5.00;87.80
64987;DHT22;67903;52.108;9.358;2024-03-02T04:09:26;5.00;87.20
64987;DHT22;67903;52.108;9.358;2024-03-02T04:12:12;5.00;87.60
64987;DHT22;67903;52.108;9.358;2024-03-02T04:14:58;5.00;87.40
64987;DHT22;67903;52.108;9.358;2024-03-02T04:17:43;4.90;87.70
64987;DHT22;67903;52.108;9.358;2024-03-02T04:20:29;4.80;88.00
64987;DHT22;67903;52.108;9.358;2024-03-02T04:23:15;4.80;88.20
64987;DHT22;67903;52.108;9.358;2024-03-02T04:26:00;4.80;88.20
64987;DHT22;67903;52.108;9.358;2024-03-02T04:28:46;4.70;88.20
64987;DHT22;67903;52.108;9.358;2024-03-02T04:31:32;4.60;88.60
64987;DHT22;67903;52.108;9.358;2024-03-02T04:34:18;4.50;89.00
64987;DHT22;67903;52.108;9.358;2024-03-02T04:37:03;4.70;89.40
64987;DHT22;67903;52.108;9.358;2024-03-02T04:39:49;4.70;89.20
64987;DHT22;67903;52.108;9.358;2024-03-02T04:42:35;4.90;88.80
64987;DHT22;67903;52.108;9.358;2024-03-02T04:45:20;4.70;88.40
64987;DHT22;67903;52.108;9.358;2024-03-02T04:48:06;4.70;88.50
64987;DHT22;67903;52.108;9.358;2024-03-02T04:50:52;4.70;88.70
64987;DHT22;67903;52.108;9.358;2024-03-02T04:53:37;4.70;88.90
64987;DHT22;67903;52.108;9.358;2024-03-02T04:56:23;4.60;89.40
64987;DHT22;67903;52.108;9.358;2024-03-02T04:59:11;4.60;89.10
64987;DHT22;67903;52.108;9.358;2024-03-02T05:01:57;4.60;89.50
64987;DHT22;67903;52.108;9.358;2024-03-02T05:04:43;4.60;89.60
64987;DHT22;67903;52.108;9.358;2024-03-02T05:07:28;4.60;89.70
64987;DHT22;67903;52.108;9.358;2024-03-02T05:10:14;4.70;89.50
64987;DHT22;67903;52.108;9.358;2024-03-02T05:12:59;4.70;89.40
64987;DHT22;67903;52.108;9.358;2024-03-02T05:15:45;4.70;89.60
64987;DHT22;67903;52.108;9.358;2024-03-02T05:18:32;4.70;89.00
64987;DHT22;67903;52.108;9.358;2024-03-02T05:21:17;4.70;88.90
64987;DHT22;67903;52.108;9.358;2024-03-02T05:24:03;4.60;89.30
64987;DHT22;67903;52.108;9.358;2024-03-02T05:26:48;4.50;89.30
64987;DHT22;67903;52.108;9.358;2024-03-02T05:29:34;4.50;89.90
64987;DHT22;67903;52.108;9.358;2024-03-02T05:32:19;4.50;89.80
64987;DHT22;67903;52.108;9.358;2024-03-02T05:35:05;4.40;90.10
64987;DHT22;67903;52.108;9.358;2024-03-02T05:37:51;4.40;90.10
64987;DHT22;67903;52.108;9.358;2024-03-02T05:40:36;4.50;90.30
64987;DHT22;67903;52.108;9.358;2024-03-02T05:43:22;4.50;90.40
64987;DHT22;67903;52.108;9.358;2024-03-02T05:46:07;4.50;90.30
64987;DHT22;67903;52.108;9.358;2024-03-02T05:48:53;4.50;90.60
64987;DHT22;67903;52.108;9.358;2024-03-02T05:51:39;4.50;90.40
64987;DHT22;67903;52.108;9.358;2024-03-02T05:54:24;4.40;90.40
64987;DHT22;67903;52.108;9.358;2024-03-02T05:57:10;4.40;90.40
64987;DHT22;67903;52.108;9.358;2024-03-02T06:00:24;4.30;90.40
64987;DHT22;67903;52.108;9.358;2024-03-02T06:03:09;4.20;90.90
64987;DHT22;67903;52.108;9.358;2024-03-02T06:05:55;4.20;91.40
64987;DHT22;67903;52.108;9.358;2024-03-02T06:08:41;4.20;91.50
64987;DHT22;67903;52.108;9.358;2024-03-02T06:11:26;4.20;91.60
64987;DHT22;67903;52.108;9.358;2024-03-02T06:14:12;4.20;91.50
64987;DHT22;67903;52.108;9.358;2024-03-02T06:16:58;4.20;91.40
64987;DHT22;67903;52.108;9.358;2024-03-02T06:19:44;4.20;91.70
64987;DHT22;67903;52.108;9.358;2024-03-02T06:22:30;4.30;91.80
64987;DHT22;67903;52.108;9.358;2024-03-02T06:25:15;4.30;91.80
64987;DHT22;67903;52.108;9.358;2024-03-02T06:28:01;4.40;91.60
64987;DHT22;67903;52.108;9.358;2024-03-02T06:30:46;4.40;91.80
64987;DHT22;67903;52.108;9.358;2024-03-02T06:33:32;4.40;91.50
64987;DHT22;67903;52.108;9.358;2024-03-02T06:36:17;4.40;91.40
64987;DHT22;67903;52.108;9.358;2024-03-02T06:39:03;4.50;91.20
64987;DHT22;67903;52.108;9.358;2024-03-02T06:41:48;4.50;91.30
64987;DHT22;67903;52.108;9.358;2024-03-02T06:44:34;4.50;91.10
64987;DHT22;67903;52.108;9.358;2024-03-02T06:47:19;4.50;90.90
64987;DHT22;67903;52.108;9.358;2024-03-02T06:50:05;4.60;90.80
64987;DHT22;67903;52.108;9.358;2024-03-02T06:52:52;4.70;90.70
64987;DHT22;67903;52.108;9.358;2024-03-02T06:55:37;4.70;90.70
64987;DHT22;67903;52.108;9.358;2024-03-02T06:58:23;4.90;90.50
64987;DHT22;67903;52.108;9.358;2024-03-02T07:01:09;5.00;90.00
64987;DHT22;67903;52.108;9.358;2024-03-02T07:03:54;5.00;89.60
64987;DHT22;67903;52.108;9.358;2024-03-02T07:06:40;5.10;89.10
64987;DHT22;67903;52.108;9.358;2024-03-02T07:09:25;5.20;88.80
64987;DHT22;67903;52.108;9.358;2024-03-02T07:12:12;5.30;88.40
64987;DHT22;67903;52.108;9.358;2024-03-02T07:14:57;5.40;88.00
64987;DHT22;67903;52.108;9.358;2024-03-02T07:17:48;5.50;87.80
64987;DHT22;67903;52.108;9.358;2024-03-02T07:20:34;5.60;87.40
64987;DHT22;67903;52.108;9.358;2024-03-02T07:23:19;5.70;87.00
64987;DHT22;67903;52.108;9.358;2024-03-02T07:26:05;5.80;86.50
64987;DHT22;67903;52.108;9.358;2024-03-02T07:28:54;5.90;86.30
64987;DHT22;67903;52.108;9.358;2024-03-02T07:31:40;6.00;85.90
64987;DHT22;67903;52.108;9.358;2024-03-02T07:34:25;6.10;85.60
64987;DHT22;67903;52.108;9.358;2024-03-02T07:37:11;6.20;85.40
64987;DHT22;67903;52.108;9.358;2024-03-02T07:39:56;6.30;85.00
64987;DHT22;67903;52.108;9.358;2024-03-02T07:42:42;6.40;84.70
64987;DHT22;67903;52.108;9.358;2024-03-02T07:45:27;6.50;84.30
64987;DHT22;67903;52.108;9.358;2024-03-02T07:48:14;6.60;83.80
64987;DHT22;67903;52.108;9.358;2024-03-02T07:50:59;6.70;83.40
64987;DHT22;67903;52.108;9.358;2024-03-02T07:53:47;6.80;82.50
64987;DHT22;67903;52.108;9.358;2024-03-02T07:56:32;6.90;81.90
64987;DHT22;67903;52.108;9.358;2024-03-02T07:59:18;7.00;81.20
64987;DHT22;67903;52.108;9.358;2024-03-02T08:02:03;7.10;80.40
64987;DHT22;67903;52.108;9.358;2024-03-02T08:04:49;7.20;80.00
64987;DHT22;67903;52.108;9.358;2024-03-02T08:07:35;7.20;79.30
64987;DHT22;67903;52.108;9.358;2024-03-02T08:10:21;7.30;78.70
64987;DHT22;67903;52.108;9.358;2024-03-02T08:13:06;7.40;78.70
64987;DHT22;67903;52.108;9.358;2024-03-02T08:15:52;7.40;78.60
64987;DHT22;67903;52.108;9.358;2024-03-02T08:18:37;7.50;78.40
64987;DHT22;67903;52.108;9.358;2024-03-02T08:21:24;7.50;77.50
64987;DHT22;67903;52.108;9.358;2024-03-02T08:24:10;7.60;77.20
64987;DHT22;67903;52.108;9.358;2024-03-02T08:26:55;7.60;77.30
64987;DHT22;67903;52.108;9.358;2024-03-02T08:29:41;7.60;77.30
64987;DHT22;67903;52.108;9.358;2024-03-02T08:32:26;7.60;77.30
64987;DHT22;67903;52.108;9.358;2024-03-02T08:35:12;7.60;77.30
64987;DHT22;67903;52.108;9.358;2024-03-02T08:37:57;7.60;77.60
64987;DHT22;67903;52.108;9.358;2024-03-02T08:40:43;7.60;77.70
64987;DHT22;67903;52.108;9.358;2024-03-02T08:43:29;7.70;77.40
64987;DHT22;67903;52.108;9.358;2024-03-02T08:46:14;7.70;77.30
64987;DHT22;67903;52.108;9.358;2024-03-02T08:49:00;7.80;77.30
64987;DHT22;67903;52.108;9.358;2024-03-02T08:51:45;7.80;76.80
64987;DHT22;67903;52.108;9.358;2024-03-02T08:54:39;7.80;76.50
64987;DHT22;67903;52.108;9.358;2024-03-02T08:57:25;7.90;75.90
64987;DHT22;67903;52.108;9.358;2024-03-02T09:00:11;8.00;75.40
64987;DHT22;67903;52.108;9.358;2024-03-02T09:02:56;8.00;75.40
64987;DHT22;67903;52.108;9.358;2024-03-02T09:05:42;8.00;75.20
64987;DHT22;67903;52.108;9.358;2024-03-02T09:08:28;8.10;75.00
64987;DHT22;67903;52.108;9.358;2024-03-02T09:11:13;8.10;74.50
64987;DHT22;67903;52.108;9.358;2024-03-02T09:13:59;8.10;74.20
64987;DHT22;67903;52.108;9.358;2024-03-02T09:16:45;8.10;74.20
64987;DHT22;67903;52.108;9.358;2024-03-02T09:19:30;8.20;73.80
64987;DHT22;67903;52.108;9.358;2024-03-02T09:22:16;8.20;73.90
64987;DHT22;67903;52.108;9.358;2024-03-02T09:25:01;8.20;73.20
64987;DHT22;67903;52.108;9.358;2024-03-02T09:27:47;8.30;73.00
64987;DHT22;67903;52.108;9.358;2024-03-02T09:30:33;8.40;72.40
64987;DHT22;67903;52.108;9.358;2024-03-02T09:33:18;8.40;72.40
64987;DHT22;67903;52.108;9.358;2024-03-02T09:36:04;8.40;72.40
64987;DHT22;67903;52.108;9.358;2024-03-02T09:38:50;8.40;72.20
64987;DHT22;67903;52.108;9.358;2024-03-02T09:41:38;8.40;71.90
64987;DHT22;67903;52.108;9.358;2024-03-02T09:44:24;8.40;72.00
64987;DHT22;67903;52.108;9.358;2024-03-02T09:47:10;8.40;72.10
64987;DHT22;67903;52.108;9.358;2024-03-02T09:49:56;8.50;71.50
64987;DHT22;67903;52.108;9.358;2024-03-02T09:52:48;8.50;71.50
64987;DHT22;67903;52.108;9.358;2024-03-02T09:55:33;8.50;71.20
64987;DHT22;67903;52.108;9.358;2024-03-02T09:58:19;8.60;70.80
64987;DHT22;67903;52.108;9.358;2024-03-02T10:01:07;8.80;70.40
64987;DHT22;67903;52.108;9.358;2024-03-02T10:03:53;8.80;70.20
64987;DHT22;67903;52.108;9.358;2024-03-02T10:06:39;9.00;69.30
64987;DHT22;67903;52.108;9.358;2024-03-02T10:09:27;9.10;69.00
64987;DHT22;67903;52.108;9.358;2024-03-02T10:12:17;9.20;68.10
64987;DHT22;67903;52.108;9.358;2024-03-02T10:15:03;9.40;67.80
64987;DHT22;67903;52.108;9.358;2024-03-02T10:17:52;9.40;67.70
64987;DHT22;67903;52.108;9.358;2024-03-02T10:20:39;9.40;67.20
64987;DHT22;67903;52.108;9.358;2024-03-02T10:23:25;9.40;67.00
64987;DHT22;67903;52.108;9.358;2024-03-02T10:26:17;9.50;67.20
64987;DHT22;67903;52.108;9.358;2024-03-02T10:29:04;9.60;66.80
64987;DHT22;67903;52.108;9.358;2024-03-02T10:31:49;9.70;66.20
64987;DHT22;67903;52.108;9.358;2024-03-02T10:34:35;9.70;66.20
64987;DHT22;67903;52.108;9.358;2024-03-02T10:37:21;9.80;65.60
64987;DHT22;67903;52.108;9.358;2024-03-02T10:40:07;9.90;65.30
64987;DHT22;67903;52.108;9.358;2024-03-02T10:42:55;9.90;65.50
64987;DHT22;67903;52.108;9.358;2024-03-02T10:45:41;10.00;64.70
64987;DHT22;67903;52.108;9.358;2024-03-02T10:48:28;10.00;64.90
64987;DHT22;67903;52.108;9.358;2024-03-02T10:51:15;10.10;63.90
64987;DHT22;67903;52.108;9.358;2024-03-02T10:54:01;10.20;64.20
64987;DHT22;67903;52.108;9.358;2024-03-02T10:56:47;10.30;64.00
64987;DHT22;67903;52.108;9.358;2024-03-02T10:59:34;10.30;63.80
64987;DHT22;67903;52.108;9.358;2024-03-02T11:02:22;10.40;63.70
64987;DHT22;67903;52.108;9.358;2024-03-02T11:05:10;10.50;63.20
64987;DHT22;67903;52.108;9.358;2024-03-02T11:08:02;10.50;63.40
64987;DHT22;67903;52.108;9.358;2024-03-02T11:10:58;10.60;63.40
64987;DHT22;67903;52.108;9.358;2024-03-02T11:13:49;10.50;62.70
64987;DHT22;67903;52.108;9.358;2024-03-02T11:16:36;10.60;62.60
64987;DHT22;67903;52.108;9.358;2024-03-02T11:19:23;10.70;62.60
64987;DHT22;67903;52.108;9.358;2024-03-02T11:22:10;10.70;62.00
64987;DHT22;67903;52.108;9.358;2024-03-02T11:24:56;10.70;62.00
64987;DHT22;67903;52.108;9.358;2024-03-02T11:33:24;10.90;61.80
64987;DHT22;67903;52.108;9.358;2024-03-02T11:36:12;10.90;61.80
64987;DHT22;67903;52.108;9.358;2024-03-02T11:38:58;11.00;61.20
64987;DHT22;67903;52.108;9.358;2024-03-02T11:41:43;11.00;61.50
64987;DHT22;67903;52.108;9.358;2024-03-02T11:44:29;11.00;61.60
64987;DHT22;67903;52.108;9.358;2024-03-02T11:47:16;11.00;61.50
64987;DHT22;67903;52.108;9.358;2024-03-02T11:50:01;11.00;61.90
64987;DHT22;67903;52.108;9.358;2024-03-02T11:52:47;11.00;61.90
64987;DHT22;67903;52.108;9.358;2024-03-02T11:55:36;11.30;61.50
64987;DHT22;67903;52.108;9.358;2024-03-02T11:58:22;11.40;60.70
64987;DHT22;67903;52.108;9.358;2024-03-02T12:01:10;11.40;60.70
64987;DHT22;67903;52.108;9.358;2024-03-02T12:03:58;11.40;60.20
64987;DHT22;67903;52.108;9.358;2024-03-02T12:06:45;11.30;60.70
64987;DHT22;67903;52.108;9.358;2024-03-02T12:09:31;11.50;61.00
64987;DHT22;67903;52.108;9.358;2024-03-02T12:12:17;11.50;60.20
64987;DHT22;67903;52.108;9.358;2024-03-02T12:15:06;11.50;60.00
64987;DHT22;67903;52.108;9.358;2024-03-02T12:17:56;11.50;60.60
64987;DHT22;67903;52.108;9.358;2024-03-02T12:20:42;11.60;60.20
64987;DHT22;67903;52.108;9.358;2024-03-02T12:23:27;11.70;60.20
64987;DHT22;67903;52.108;9.358;2024-03-02T12:26:13;11.70;60.50
64987;DHT22;67903;52.108;9.358;2024-03-02T12:28:59;11.90;59.60
64987;DHT22;67903;52.108;9.358;2024-03-02T12:31:44;11.90;59.60
64987;DHT22;67903;52.108;9.358;2024-03-02T12:34:33;11.80;59.20
64987;DHT22;67903;52.108;9.358;2024-03-02T12:37:18;11.70;60.10
64987;DHT22;67903;52.108;9.358;2024-03-02T12:40:04;11.70;59.70
64987;DHT22;67903;52.108;9.358;2024-03-02T12:42:50;11.90;59.20
64987;DHT22;67903;52.108;9.358;2024-03-02T12:45:37;11.90;60.00
64987;DHT22;67903;52.108;9.358;2024-03-02T12:48:23;11.90;59.60
64987;DHT22;67903;52.108;9.358;2024-03-02T12:51:08;11.90;60.30
64987;DHT22;67903;52.108;9.358;2024-03-02T12:53:57;11.90;59.30
64987;DHT22;67903;52.108;9.358;2024-03-02T12:56:43;11.90;59.30
64987;DHT22;67903;52.108;9.358;2024-03-02T12:59:32;11.90;59.10
64987;DHT22;67903;52.108;9.358;2024-03-02T13:02:18;11.90;59.30
64987;DHT22;67903;52.108;9.358;2024-03-02T13:05:06;11.80;59.70
64987;DHT22;67903;52.108;9.358;2024-03-02T13:07:51;11.90;59.10
64987;DHT22;67903;52.108;9.358;2024-03-02T13:10:37;11.70;59.60
64987;DHT22;67903;52.108;9.358;2024-03-02T13:13:23;11.70;59.60
64987;DHT22;67903;52.108;9.358;2024-03-02T13:16:09;11.70;59.60
64987;DHT22;67903;52.108;9.358;2024-03-02T13:18:56;11.80;59.50
64987;DHT22;67903;52.108;9.358;2024-03-02T13:21:42;11.80;59.60
64987;DHT22;67903;52.108;9.358;2024-03-02T13:24:28;12.00;58.70
64987;DHT22;67903;52.108;9.358;2024-03-02T13:27:16;12.00;58.80
64987;DHT22;67903;52.108;9.358;2024-03-02T13:30:05;12.00;59.00
64987;DHT22;67903;52.108;9.358;2024-03-02T13:32:51;11.90;59.40
64987;DHT22;67903;52.108;9.358;2024-03-02T13:35:37;11.90;58.70
64987;DHT22;67903;52.108;9.358;2024-03-02T13:38:23;12.00;58.50
64987;DHT22;67903;52.108;9.358;2024-03-02T13:41:09;12.00;58.70
64987;DHT22;67903;52.108;9.358;2024-03-02T13:43:54;12.00;58.70
64987;DHT22;67903;52.108;9.358;2024-03-02T13:46:40;12.00;58.60
64987;DHT22;67903;52.108;9.358;2024-03-02T13:49:25;12.00;58.60
64987;DHT22;67903;52.108;9.358;2024-03-02T13:52:20;12.00;58.20
64987;DHT22;67903;52.108;9.358;2024-03-02T13:55:07;12.20;57.80
64987;DHT22;67903;52.108;9.358;2024-03-02T13:57:52;12.30;58.10
64987;DHT22;67903;52.108;9.358;2024-03-02T14:00:38;12.20;58.00
64987;DHT22;67903;52.108;9.358;2024-03-02T14:03:24;12.30;57.40
64987;DHT22;67903;52.108;9.358;2024-03-02T14:06:11;12.20;57.60
64987;DHT22;67903;52.108;9.358;2024-03-02T14:08:56;12.20;58.00
64987;DHT22;67903;52.108;9.358;2024-03-02T14:11:42;12.30;58.20
64987;DHT22;67903;52.108;9.358;2024-03-02T14:14:28;12.30;57.70
64987;DHT22;67903;52.108;9.358;2024-03-02T14:17:13;12.50;57.20
64987;DHT22;67903;52.108;9.358;2024-03-02T14:20:00;12.50;58.00
64987;DHT22;67903;52.108;9.358;2024-03-02T14:22:46;12.40;58.00
64987;DHT22;67903;52.108;9.358;2024-03-02T14:25:31;12.50;57.90
64987;DHT22;67903;52.108;9.358;2024-03-02T14:28:18;12.40;58.40
64987;DHT22;67903;52.108;9.358;2024-03-02T14:31:25;12.40;58.30
64987;DHT22;67903;52.108;9.358;2024-03-02T14:34:10;12.50;56.80
64987;DHT22;67903;52.108;9.358;2024-03-02T14:36:56;12.50;56.90
64987;DHT22;67903;52.108;9.358;2024-03-02T14:39:41;12.50;57.50
64987;DHT22;67903;52.108;9.358;2024-03-02T14:42:27;12.30;58.10
64987;DHT22;67903;52.108;9.358;2024-03-02T14:45:16;12.30;58.00
64987;DHT22;67903;52.108;9.358;2024-03-02T14:48:02;12.30;57.90
64987;DHT22;67903;52.108;9.358;2024-03-02T14:50:49;12.40;56.30
64987;DHT22;67903;52.108;9.358;2024-03-02T14:53:34;12.30;57.10
64987;DHT22;67903;52.108;9.358;2024-03-02T14:56:20;12.40;56.60
64987;DHT22;67903;52.108;9.358;2024-03-02T14:59:06;12.50;56.70
64987;DHT22;67903;52.108;9.358;2024-03-02T15:01:51;12.50;56.10
64987;DHT22;67903;52.108;9.358;2024-03-02T15:04:37;12.40;56.40
64987;DHT22;67903;52.108;9.358;2024-03-02T15:07:23;12.30;56.20
64987;DHT22;67903;52.108;9.358;2024-03-02T15:10:09;12.30;56.30
64987;DHT22;67903;52.108;9.358;2024-03-02T15:12:55;12.40;56.00
64987;DHT22;67903;52.108;9.358;2024-03-02T15:15:41;12.30;55.80
64987;DHT22;67903;52.108;9.358;2024-03-02T15:18:26;12.50;55.50
64987;DHT22;67903;52.108;9.358;2024-03-02T15:21:12;12.40;55.50
64987;DHT22;67903;52.108;9.358;2024-03-02T15:23:58;12.20;56.50
64987;DHT22;67903;52.108;9.358;2024-03-02T15:26:43;12.20;56.20
64987;DHT22;67903;52.108;9.358;2024-03-02T15:29:29;12.10;56.10
64987;DHT22;67903;52.108;9.358;2024-03-02T15:32:16;12.10;56.20
64987;DHT22;67903;52.108;9.358;2024-03-02T15:35:02;12.10;57.20
64987;DHT22;67903;52.108;9.358;2024-03-02T15:37:47;12.00;57.70
64987;DHT22;67903;52.108;9.358;2024-03-02T15:40:33;12.00;58.00
64987;DHT22;67903;52.108;9.358;2024-03-02T15:43:19;12.00;58.00
64987;DHT22;67903;52.108;9.358;2024-03-02T15:46:04;12.00;57.80
64987;DHT22;67903;52.108;9.358;2024-03-02T15:48:50;11.90;57.80
64987;DHT22;67903;52.108;9.358;2024-03-02T15:51:35;11.90;57.60
64987;DHT22;67903;52.108;9.358;2024-03-02T15:54:25;12.00;58.00
64987;DHT22;67903;52.108;9.358;2024-03-02T15:57:10;11.90;57.50
64987;DHT22;67903;52.108;9.358;2024-03-02T15:59:56;11.90;57.80
64987;DHT22;67903;52.108;9.358;2024-03-02T16:02:42;11.90;58.30
64987;DHT22;67903;52.108;9.358;2024-03-02T16:05:28;11.80;58.00
64987;DHT22;67903;52.108;9.358;2024-03-02T16:08:14;11.90;58.20
64987;DHT22;67903;52.108;9.358;2024-03-02T16:10:59;11.70;58.50
64987;DHT22;67903;52.108;9.358;2024-03-02T16:13:48;11.70;58.50
64987;DHT22;67903;52.108;9.358;2024-03-02T16:16:34;11.70;58.40
64987;DHT22;67903;52.108;9.358;2024-03-02T16:19:20;11.70;59.20
64987;DHT22;67903;52.108;9.358;2024-03-02T16:22:17;11.70;59.00
64987;DHT22;67903;52.108;9.358;2024-03-02T16:25:03;11.70;58.80
64987;DHT22;67903;52.108;9.358;2024-03-02T16:27:50;11.50;59.30
64987;DHT22;67903;52.108;9.358;2024-03-02T16:30:37;11.50;59.40
64987;DHT22;67903;52.108;9.358;2024-03-02T16:33:22;11.50;59.90
64987;DHT22;67903;52.108;9.358;2024-03-02T16:36:09;11.50;59.90
64987;DHT22;67903;52.108;9.358;2024-03-02T16:38:55;11.30;60.20
64987;DHT22;67903;52.108;9.358;2024-03-02T16:41:41;11.30;60.50
64987;DHT22;67903;52.108;9.358;2024-03-02T16:44:32;11.10;60.90
64987;DHT22;67903;52.108;9.358;2024-03-02T16:47:17;11.00;61.50
64987;DHT22;67903;52.108;9.358;2024-03-02T16:50:03;10.90;61.70
64987;DHT22;67903;52.108;9.358;2024-03-02T16:52:51;10.90;61.90
64987;DHT22;67903;52.108;9.358;2024-03-02T16:55:37;10.70;62.10
64987;DHT22;67903;52.108;9.358;2024-03-02T16:58:22;10.80;62.20
64987;DHT22;67903;52.108;9.358;2024-03-02T17:01:08;10.80;62.50
64987;DHT22;67903;52.108;9.358;2024-03-02T17:03:53;10.60;62.90
64987;DHT22;67903;52.108;9.358;2024-03-02T17:06:39;10.40;63.60
64987;DHT22;67903;52.108;9.358;2024-03-02T17:09:25;10.20;64.00
64987;DHT22;67903;52.108;9.358;2024-03-02T17:12:10;10.20;64.10
64987;DHT22;67903;52.108;9.358;2024-03-02T17:14:56;10.10;64.70
64987;DHT22;67903;52.108;9.358;2024-03-02T17:17:42;10.00;64.80
64987;DHT22;67903;52.108;9.358;2024-03-02T17:20:27;10.00;65.00
64987;DHT22;67903;52.108;9.358;2024-03-02T17:23:13;10.10;65.20
64987;DHT22;67903;52.108;9.358;2024-03-02T17:25:58;10.10;65.00
64987;DHT22;67903;52.108;9.358;2024-03-02T17:28:44;10.00;65.50
64987;DHT22;67903;52.108;9.358;2024-03-02T17:31:30;9.80;65.80
64987;DHT22;67903;52.108;9.358;2024-03-02T17:34:16;9.80;66.40
64987;DHT22;67903;52.108;9.358;2024-03-02T17:37:02;9.80;65.90
64987;DHT22;67903;52.108;9.358;2024-03-02T17:39:47;9.80;65.70
64987;DHT22;67903;52.108;9.358;2024-03-02T17:42:33;9.80;66.00
64987;DHT22;67903;52.108;9.358;2024-03-02T17:45:19;9.70;66.00
64987;DHT22;67903;52.108;9.358;2024-03-02T17:48:08;9.70;66.40
64987;DHT22;67903;52.108;9.358;2024-03-02T17:50:55;9.60;66.50